createdAt,value
2019-03-17T00:01:57.685Z,66.20
2019-03-17T00:04:31.270Z,66.10
2019-03-17T00:06:57.225Z,66.10
2019-03-17T00:09:27.252Z,66.10
2019-03-17T00:11:57.381Z,66.20
2019-03-17T00:14:27.379Z,66.20
2019-03-17T00:16:57.576Z,66.10
2019-03-17T00:19:27.790Z,66.10
2019-03-17T00:21:57.974Z,66.10
2019-03-17T00:24:28.348Z,66.00
2019-03-17T00:26:58.589Z,65.80
2019-03-17T00:29:28.672Z,65.70
2019-03-17T00:31:59.687Z,65.60
2019-03-17T00:34:29.920Z,65.40
2019-03-17T00:37:00.116Z,65.40
2019-03-17T00:39:30.138Z,65.20
2019-03-17T00:42:00.244Z,65.10
2019-03-17T00:44:30.956Z,65.10
2019-03-17T00:47:00.837Z,65.00
2019-03-17T00:49:31.052Z,64.90
2019-03-17T00:52:01.189Z,64.70
2019-03-17T00:54:31.311Z,64.60
2019-03-17T00:57:01.339Z,64.40
2019-03-17T00:59:31.358Z,64.30
2019-03-17T01:02:01.453Z,64.20
2019-03-17T01:04:31.499Z,64.10
2019-03-17T01:07:02.381Z,63.90
2019-03-17T01:09:32.723Z,63.80
2019-03-17T01:12:02.915Z,63.80
2019-03-17T01:14:33.082Z,63.60
2019-03-17T01:17:03.246Z,63.50
2019-03-17T01:19:33.422Z,63.40
2019-03-17T01:22:03.440Z,63.30
2019-03-17T01:24:33.529Z,63.10
2019-03-17T01:27:03.578Z,62.80
2019-03-17T01:29:33.890Z,62.70
2019-03-17T01:32:04.193Z,62.50
2019-03-17T01:34:34.206Z,62.50
2019-03-17T01:37:04.369Z,62.40
2019-03-17T01:39:34.463Z,62.00
2019-03-17T01:42:04.659Z,61.60
2019-03-17T01:44:34.687Z,61.30
2019-03-17T01:47:04.949Z,61.10
2019-03-17T01:49:34.862Z,60.60
2019-03-17T01:52:05.157Z,60.70
2019-03-17T01:54:35.308Z,60.60
2019-03-17T01:57:05.355Z,60.60
2019-03-17T01:59:35.381Z,60.30
2019-03-17T02:02:05.538Z,60.00
2019-03-17T02:04:35.488Z,59.90
2019-03-17T02:07:05.856Z,59.60
2019-03-17T02:09:35.754Z,59.50
2019-03-17T02:12:05.910Z,59.30
2019-03-17T02:14:36.013Z,59.40
2019-03-17T02:17:06.094Z,59.80
2019-03-17T02:19:36.009Z,59.00
2019-03-17T02:22:06.119Z,58.90
2019-03-17T02:24:36.127Z,58.60
2019-03-17T02:27:06.434Z,58.50
2019-03-17T02:29:36.693Z,58.40
2019-03-17T02:32:06.742Z,58.20
2019-03-17T02:34:37.012Z,58.00
2019-03-17T02:37:07.165Z,58.10
2019-03-17T02:39:37.290Z,58.00
2019-03-17T02:42:07.397Z,57.60
2019-03-17T02:44:37.595Z,57.50
2019-03-17T02:47:07.779Z,57.40
2019-03-17T02:49:37.688Z,57.20
2019-03-17T02:52:07.762Z,57.20
2019-03-17T02:54:38.003Z,56.80
2019-03-17T02:57:08.186Z,56.80
2019-03-17T02:59:38.362Z,56.70
2019-03-17T03:02:08.619Z,56.60
2019-03-17T03:04:38.747Z,56.60
2019-03-17T03:07:08.755Z,56.50
2019-03-17T03:09:38.783Z,56.30
2019-03-17T03:12:10.743Z,56.10
2019-03-17T03:14:40.674Z,55.70
2019-03-17T03:17:10.742Z,55.70
2019-03-17T03:19:40.853Z,54.70
2019-03-17T03:22:10.892Z,55.40
2019-03-17T03:24:40.910Z,55.10
2019-03-17T03:27:11.052Z,55.00
2019-03-17T03:29:41.105Z,54.80
2019-03-17T03:32:11.221Z,54.80
2019-03-17T03:34:41.476Z,54.60
2019-03-17T03:37:11.463Z,54.60
2019-03-17T03:39:41.516Z,54.60
2019-03-17T03:42:11.640Z,54.40
2019-03-17T03:44:41.629Z,54.30
2019-03-17T03:47:11.811Z,54.10
2019-03-17T03:49:42.451Z,53.70
2019-03-17T03:52:12.569Z,53.50
2019-03-17T03:57:12.190Z,52.60
2019-03-17T03:59:42.117Z,53.00
2019-03-17T04:02:12.360Z,52.90
2019-03-17T04:04:42.279Z,52.80
2019-03-17T04:07:12.449Z,52.60
2019-03-17T04:09:42.552Z,52.50
2019-03-17T04:12:12.996Z,52.40
2019-03-17T04:14:43.170Z,52.40
2019-03-17T04:17:13.314Z,52.20
2019-03-17T04:19:43.429Z,52.30
2019-03-17T04:22:13.338Z,52.10
2019-03-17T04:24:43.523Z,51.90
2019-03-17T04:27:13.597Z,51.70
2019-03-17T04:29:43.709Z,51.50
2019-03-17T04:32:13.845Z,51.30
2019-03-17T04:34:43.794Z,51.30
2019-03-17T04:37:13.898Z,51.20
2019-03-17T04:39:43.855Z,50.80
2019-03-17T04:42:13.881Z,50.70
2019-03-17T04:44:44.036Z,50.70
2019-03-17T04:47:14.037Z,50.40
2019-03-17T04:49:44.317Z,50.40
2019-03-17T04:52:14.541Z,50.40
2019-03-17T04:54:44.650Z,50.40
2019-03-17T04:57:15.776Z,50.20
2019-03-17T04:59:45.805Z,50.30
2019-03-17T05:02:16.031Z,50.30
2019-03-17T05:04:46.147Z,50.20
2019-03-17T05:07:16.111Z,50.10
2019-03-17T05:09:46.310Z,50.00
2019-03-17T05:12:16.433Z,49.90
2019-03-17T05:14:46.422Z,50.00
2019-03-17T05:17:16.682Z,50.00
2019-03-17T05:19:46.667Z,49.70
2019-03-17T05:22:16.657Z,49.90
2019-03-17T05:24:46.751Z,49.70
2019-03-17T05:27:16.849Z,49.60
2019-03-17T05:29:46.965Z,49.30
2019-03-17T05:32:17.067Z,49.30
2019-03-17T05:34:47.151Z,48.90
2019-03-17T05:37:17.840Z,49.10
2019-03-17T05:39:48.096Z,48.60
2019-03-17T05:42:18.086Z,48.80
2019-03-17T05:44:48.122Z,48.90
2019-03-17T05:47:18.327Z,48.80
2019-03-17T05:49:48.561Z,48.80
2019-03-17T05:52:18.529Z,48.50
2019-03-17T05:54:48.571Z,48.30
2019-03-17T05:57:18.596Z,48.10
2019-03-17T05:59:48.631Z,47.80
2019-03-17T06:02:18.729Z,47.90
2019-03-17T06:04:48.769Z,48.00
2019-03-17T06:07:19.247Z,47.80
2019-03-17T06:09:49.586Z,47.70
2019-03-17T06:12:19.770Z,47.60
2019-03-17T06:14:49.956Z,47.60
2019-03-17T06:17:20.072Z,47.60
2019-03-17T06:22:19.757Z,45.40
2019-03-17T06:24:50.024Z,46.80
2019-03-17T06:27:20.176Z,46.80
2019-03-17T06:32:19.944Z,46.10
2019-03-17T06:34:50.021Z,46.50
2019-03-17T06:37:30.493Z,46.30
2019-03-17T06:39:51.788Z,45.90
2019-03-17T06:42:21.791Z,45.90
2019-03-17T06:44:51.954Z,45.80
2019-03-17T06:47:22.119Z,45.50
2019-03-17T06:49:52.273Z,45.30
2019-03-17T06:52:22.580Z,45.10
2019-03-17T06:54:52.493Z,45.00
2019-03-17T06:57:22.601Z,44.80
2019-03-17T06:59:52.674Z,44.20
2019-03-17T07:02:22.951Z,44.70
2019-03-17T07:04:54.009Z,44.90
2019-03-17T07:07:24.319Z,44.90
2019-03-17T07:09:54.496Z,44.90
2019-03-17T07:12:24.528Z,44.40
2019-03-17T07:14:54.672Z,44.80
2019-03-17T07:17:25.003Z,44.60
2019-03-17T07:19:55.198Z,44.70
2019-03-17T07:22:25.489Z,44.60
2019-03-17T07:24:55.766Z,44.50
2019-03-17T07:27:25.677Z,44.00
2019-03-17T07:29:55.840Z,43.70
2019-03-17T07:32:26.026Z,43.80
2019-03-17T07:34:56.055Z,43.80
2019-03-17T07:37:26.328Z,43.30
2019-03-17T07:39:56.271Z,43.30
2019-03-17T07:42:26.203Z,43.40
2019-03-17T07:44:56.545Z,43.70
2019-03-17T07:47:26.644Z,43.70
2019-03-17T07:49:56.766Z,43.60
2019-03-17T07:52:26.901Z,43.50
2019-03-17T07:54:59.441Z,43.40
2019-03-17T07:57:29.509Z,43.20
2019-03-17T07:59:59.635Z,43.20
2019-03-17T08:02:29.731Z,43.10
2019-03-17T08:04:59.790Z,42.70
2019-03-17T08:07:30.399Z,42.50
2019-03-17T08:10:00.840Z,42.50
2019-03-17T08:12:31.076Z,42.70
2019-03-17T08:15:01.205Z,42.50
2019-03-17T08:17:31.121Z,42.50
2019-03-17T08:20:01.328Z,42.50
2019-03-17T08:22:31.455Z,42.30
2019-03-17T08:25:01.633Z,42.50
2019-03-17T08:27:32.942Z,42.60
2019-03-17T08:30:02.966Z,42.60
2019-03-17T08:32:33.007Z,43.20
2019-03-17T08:35:03.070Z,42.40
2019-03-17T08:37:33.145Z,42.30
2019-03-17T08:40:03.166Z,42.20
2019-03-17T08:42:33.256Z,42.30
2019-03-17T08:45:03.497Z,42.30
2019-03-17T08:47:33.548Z,42.30
2019-03-17T08:50:03.529Z,42.30
2019-03-17T08:52:34.465Z,42.30
2019-03-17T08:55:05.404Z,42.10
2019-03-17T08:57:35.686Z,42.10
2019-03-17T09:00:09.372Z,42.00
2019-03-17T09:02:39.434Z,41.90
2019-03-17T09:05:09.360Z,41.90
2019-03-17T09:07:39.595Z,41.90
2019-03-17T09:10:12.881Z,41.70
2019-03-17T09:12:42.806Z,41.80
2019-03-17T09:15:12.916Z,41.70
2019-03-17T09:17:43.009Z,41.60
2019-03-17T09:20:15.016Z,41.50
2019-03-17T09:22:45.617Z,41.30
2019-03-17T09:25:15.844Z,41.30
2019-03-17T09:27:45.795Z,41.10
2019-03-17T09:30:17.708Z,41.00
2019-03-17T09:32:47.783Z,41.00
2019-03-17T09:35:17.941Z,41.00
2019-03-17T09:37:48.079Z,40.90
2019-03-17T09:40:19.030Z,40.70
2019-03-17T09:42:49.145Z,40.50
2019-03-17T09:45:19.151Z,40.50
2019-03-17T09:47:49.199Z,40.50
2019-03-17T09:50:20.389Z,40.40
2019-03-17T09:52:50.574Z,40.30
2019-03-17T09:55:20.676Z,40.20
2019-03-17T09:57:50.771Z,40.10
2019-03-17T10:00:22.842Z,40.00
2019-03-17T10:02:53.010Z,40.00
2019-03-17T10:05:23.246Z,40.00
2019-03-17T10:07:53.417Z,39.80
2019-03-17T10:10:25.065Z,39.80
2019-03-17T10:12:55.141Z,39.80
2019-03-17T10:15:25.375Z,39.80
2019-03-17T10:17:55.585Z,39.90
2019-03-17T10:20:25.674Z,40.00
2019-03-17T10:22:55.658Z,40.10
2019-03-17T10:25:26.108Z,40.30
2019-03-17T10:27:56.407Z,40.50
2019-03-17T10:30:26.439Z,40.70
2019-03-17T10:32:56.658Z,40.90
2019-03-17T10:35:26.740Z,41.10
2019-03-17T10:37:56.816Z,41.40
2019-03-17T10:40:27.077Z,41.60
2019-03-17T10:42:57.300Z,41.80
2019-03-17T10:45:27.365Z,41.90
2019-03-17T10:47:57.513Z,42.10
2019-03-17T10:50:27.472Z,42.20
2019-03-17T10:52:57.524Z,42.50
2019-03-17T10:55:27.651Z,42.70
2019-03-17T10:57:57.817Z,42.80
2019-03-17T11:00:28.139Z,43.00
2019-03-17T11:02:58.401Z,43.10
2019-03-17T11:05:28.624Z,43.40
2019-03-17T11:07:58.779Z,43.50
2019-03-17T11:10:28.878Z,43.70
2019-03-17T11:12:58.781Z,43.90
2019-03-17T11:15:29.303Z,44.10
2019-03-17T11:17:59.154Z,44.40
2019-03-17T11:20:29.315Z,44.60
2019-03-17T11:22:59.540Z,44.80
2019-03-17T11:25:29.544Z,45.00
2019-03-17T11:27:59.741Z,45.10
2019-03-17T11:30:30.041Z,45.20
2019-03-17T11:33:00.173Z,45.40
2019-03-17T11:35:30.448Z,45.60
2019-03-17T11:38:00.473Z,45.70
2019-03-17T11:40:31.226Z,46.60
2019-03-17T11:43:01.351Z,46.10
2019-03-17T11:45:31.481Z,46.30
2019-03-17T11:48:01.329Z,46.40
2019-03-17T11:50:31.703Z,46.50
2019-03-17T11:53:01.643Z,46.80
2019-03-17T11:55:32.063Z,47.30
2019-03-17T11:58:02.086Z,47.50
2019-03-17T12:00:32.431Z,47.80
2019-03-17T12:03:02.747Z,48.00
2019-03-17T12:05:33.021Z,48.10
2019-03-17T12:08:03.108Z,48.20
2019-03-17T12:10:33.258Z,48.30
2019-03-17T12:13:03.974Z,48.30
2019-03-17T12:15:36.457Z,48.40
2019-03-17T12:18:06.469Z,48.40
2019-03-17T12:20:36.604Z,48.50
2019-03-17T12:23:06.761Z,48.70
2019-03-17T12:25:36.998Z,48.80
2019-03-17T12:28:06.984Z,49.30
2019-03-17T12:30:36.974Z,49.10
2019-03-17T12:33:07.209Z,49.20
2019-03-17T12:35:37.359Z,49.40
2019-03-17T12:38:07.511Z,49.50
2019-03-17T12:40:37.748Z,49.60
2019-03-17T12:43:07.738Z,49.80
2019-03-17T12:45:37.713Z,50.00
2019-03-17T12:48:07.843Z,50.10
2019-03-17T12:50:38.091Z,50.20
2019-03-17T12:53:08.585Z,50.40
2019-03-17T12:55:38.632Z,50.60
2019-03-17T12:58:08.759Z,50.80
2019-03-17T13:00:38.856Z,51.10
2019-03-17T13:03:08.987Z,51.30
2019-03-17T13:05:39.092Z,51.60
2019-03-17T13:08:09.167Z,51.80
2019-03-17T13:10:39.315Z,52.10
2019-03-17T13:13:09.387Z,52.20
2019-03-17T13:15:39.610Z,52.20
2019-03-17T13:18:09.898Z,52.30
2019-03-17T13:20:40.077Z,52.40
2019-03-17T13:23:10.107Z,52.40
2019-03-17T13:25:40.278Z,52.50
2019-03-17T13:28:10.315Z,52.60
2019-03-17T13:30:40.426Z,52.70
2019-03-17T13:33:10.595Z,52.80
2019-03-17T13:35:40.652Z,53.10
2019-03-17T13:38:11.167Z,53.20
2019-03-17T13:40:41.271Z,53.40
2019-03-17T13:43:11.296Z,53.40
2019-03-17T13:45:41.593Z,53.40
2019-03-17T13:48:11.623Z,53.60
2019-03-17T13:50:41.717Z,53.70
2019-03-17T13:53:11.958Z,53.90
2019-03-17T13:55:42.110Z,54.10
2019-03-17T13:58:13.270Z,54.40
2019-03-17T14:00:43.346Z,54.60
2019-03-17T14:03:13.420Z,54.70
2019-03-17T14:05:43.571Z,54.80
2019-03-17T14:08:13.768Z,54.90
2019-03-17T14:10:44.039Z,54.90
2019-03-17T14:13:14.123Z,55.00
2019-03-17T14:15:44.162Z,55.10
2019-03-17T14:18:14.316Z,55.10
2019-03-17T14:20:44.256Z,55.20
2019-03-17T14:23:14.388Z,55.10
2019-03-17T14:25:44.406Z,55.20
2019-03-17T14:28:14.654Z,55.20
2019-03-17T14:30:45.095Z,55.30
2019-03-17T14:33:15.217Z,55.60
2019-03-17T14:35:45.296Z,55.90
2019-03-17T14:38:15.346Z,56.10
2019-03-17T14:40:53.327Z,56.20
2019-03-17T14:43:17.022Z,56.70
2019-03-17T14:45:47.066Z,56.30
2019-03-17T14:48:17.179Z,56.40
2019-03-17T14:50:47.238Z,56.50
2019-03-17T14:53:17.670Z,56.60
2019-03-17T14:55:47.982Z,56.60
2019-03-17T14:58:18.127Z,56.60
2019-03-17T15:00:48.256Z,56.70
2019-03-17T15:03:18.407Z,56.70
2019-03-17T15:05:49.089Z,57.00
2019-03-17T15:08:19.348Z,57.00
2019-03-17T15:10:49.231Z,57.20
2019-03-17T15:13:19.480Z,57.30
2019-03-17T15:16:01.978Z,58.10
2019-03-17T15:18:21.097Z,57.20
2019-03-17T15:20:51.244Z,58.00
2019-03-17T15:23:21.418Z,57.80
2019-03-17T15:25:51.349Z,57.90
2019-03-17T15:28:21.732Z,57.90
2019-03-17T15:31:05.493Z,57.90
2019-03-17T15:33:23.504Z,58.10
2019-03-17T15:35:53.463Z,58.10
2019-03-17T15:38:23.546Z,58.30
2019-03-17T15:40:53.706Z,58.40
2019-03-17T15:43:23.956Z,58.60
2019-03-17T15:45:54.053Z,58.70
2019-03-17T15:48:24.045Z,58.90
2019-03-17T15:50:54.176Z,58.90
2019-03-17T15:53:24.245Z,58.90
2019-03-17T15:55:54.163Z,59.00
2019-03-17T15:58:24.217Z,59.00
2019-03-17T16:00:54.383Z,58.90
2019-03-17T16:03:24.413Z,59.00
2019-03-17T16:05:54.498Z,59.10
2019-03-17T16:08:24.938Z,59.10
2019-03-17T16:10:55.160Z,59.20
2019-03-17T16:13:25.315Z,59.40
2019-03-17T16:15:55.358Z,59.50
2019-03-17T16:18:25.738Z,59.80
2019-03-17T16:20:55.749Z,60.00
2019-03-17T16:23:25.815Z,60.20
2019-03-17T16:25:55.837Z,60.70
2019-03-17T16:28:26.011Z,61.10
2019-03-17T16:31:06.404Z,61.20
2019-03-17T16:33:36.571Z,61.40
2019-03-17T16:36:06.741Z,61.50
2019-03-17T16:38:36.705Z,61.80
2019-03-17T16:41:07.051Z,61.70
2019-03-17T16:43:37.303Z,62.00
2019-03-17T16:46:07.551Z,61.70
2019-03-17T16:48:37.603Z,61.90
2019-03-17T16:51:07.938Z,61.90
2019-03-17T16:53:38.029Z,62.10
2019-03-17T16:56:08.240Z,62.30
2019-03-17T16:58:38.781Z,62.30
2019-03-17T17:01:08.990Z,62.70
2019-03-17T17:03:38.993Z,62.70
2019-03-17T17:06:09.200Z,62.90
2019-03-17T17:08:39.364Z,62.90
2019-03-17T17:11:09.582Z,62.90
2019-03-17T17:13:39.503Z,62.90
2019-03-17T17:16:09.549Z,63.00
2019-03-17T17:18:39.695Z,63.10
2019-03-17T17:21:09.735Z,63.20
2019-03-17T17:23:39.827Z,63.30
2019-03-17T17:26:10.252Z,63.40
2019-03-17T17:28:40.392Z,63.60
2019-03-17T17:31:10.476Z,63.70
2019-03-17T17:33:40.508Z,63.90
2019-03-17T17:36:11.139Z,64.20
2019-03-17T17:38:41.118Z,64.50
2019-03-17T17:41:11.530Z,65.50
2019-03-17T17:43:41.786Z,65.00
2019-03-17T17:46:11.739Z,65.20
2019-03-17T17:48:41.754Z,65.40
2019-03-17T17:51:11.824Z,65.50
2019-03-17T17:56:11.567Z,65.20
2019-03-17T17:58:41.548Z,66.10
2019-03-17T18:01:11.785Z,66.10
2019-03-17T18:03:51.225Z,66.20
2019-03-17T18:06:13.295Z,66.30
2019-03-17T18:08:43.567Z,66.30
2019-03-17T18:11:13.582Z,66.30
2019-03-17T18:13:43.641Z,66.40
2019-03-17T18:16:13.716Z,66.40
2019-03-17T18:18:43.803Z,66.60
2019-03-17T18:21:13.945Z,66.60
2019-03-17T18:23:44.089Z,66.60
2019-03-17T18:26:14.100Z,66.80
2019-03-17T18:28:44.167Z,67.60
2019-03-17T18:31:14.434Z,66.90
2019-03-17T18:33:45.442Z,67.00
2019-03-17T18:36:15.842Z,67.00
2019-03-17T18:38:46.173Z,66.90
2019-03-17T18:41:16.435Z,66.90
2019-03-17T18:43:46.403Z,66.70
2019-03-17T18:46:16.824Z,66.90
2019-03-17T18:48:47.174Z,67.00
2019-03-17T18:51:17.257Z,67.00
2019-03-17T18:53:47.288Z,67.10
2019-03-17T18:56:17.256Z,67.20
2019-03-17T18:58:47.385Z,67.20
2019-03-17T19:01:17.496Z,67.20
2019-03-17T19:03:47.485Z,67.40
2019-03-17T19:06:18.548Z,67.60
2019-03-17T19:08:48.732Z,67.80
2019-03-17T19:11:18.794Z,68.00
2019-03-17T19:13:48.948Z,68.20
2019-03-17T19:16:19.064Z,68.30
2019-03-17T19:18:49.147Z,68.50
2019-03-17T19:21:19.127Z,68.60
2019-03-17T19:23:49.418Z,68.60
2019-03-17T19:26:19.932Z,68.60
2019-03-17T19:28:49.974Z,68.60
2019-03-17T19:31:20.024Z,68.40
2019-03-17T19:33:50.019Z,68.80
2019-03-17T19:36:20.206Z,68.80
2019-03-17T19:38:50.349Z,68.80
2019-03-17T19:41:20.457Z,68.80
2019-03-17T19:43:50.593Z,68.80
2019-03-17T19:46:20.737Z,68.80
2019-03-17T19:48:50.872Z,69.00
2019-03-17T19:51:20.970Z,69.10
2019-03-17T19:53:51.089Z,69.30
2019-03-17T19:56:21.185Z,69.40
2019-03-17T19:58:51.322Z,69.30
2019-03-17T20:01:21.239Z,69.30
2019-03-17T20:03:51.527Z,69.20
2019-03-17T20:06:21.519Z,69.10
2019-03-17T20:08:51.604Z,69.00
2019-03-17T20:11:21.643Z,68.80
2019-03-17T20:13:51.659Z,68.80
2019-03-17T20:16:21.647Z,68.80
2019-03-17T20:18:51.725Z,68.90
2019-03-17T20:21:21.793Z,69.10
2019-03-17T20:23:51.830Z,69.30
2019-03-17T20:26:22.672Z,69.40
2019-03-17T20:28:52.792Z,69.30
2019-03-17T20:31:23.074Z,69.20
2019-03-17T20:33:53.206Z,69.10
2019-03-17T20:36:23.376Z,68.90
2019-03-17T20:38:53.489Z,68.80
2019-03-17T20:41:23.532Z,68.80
2019-03-17T20:43:53.692Z,69.60
2019-03-17T20:46:23.942Z,68.80
2019-03-17T20:48:54.049Z,68.80
2019-03-17T20:51:24.002Z,69.00
2019-03-17T20:53:54.059Z,69.00
2019-03-17T20:56:24.229Z,69.10
2019-03-17T20:58:54.717Z,69.20
2019-03-17T21:01:24.936Z,69.20
2019-03-17T21:03:55.273Z,69.20
2019-03-17T21:06:25.326Z,69.20
2019-03-17T21:08:55.701Z,69.40
2019-03-17T21:11:25.707Z,69.50
2019-03-17T21:13:55.839Z,69.60
2019-03-17T21:16:25.871Z,69.80
2019-03-17T21:18:55.929Z,70.10
2019-03-17T21:21:25.838Z,70.20
2019-03-17T21:23:56.026Z,70.40
2019-03-17T21:26:26.070Z,70.50
2019-03-17T21:28:56.301Z,70.60
2019-03-17T21:31:26.499Z,70.70
2019-03-17T21:33:56.633Z,70.80
2019-03-17T21:36:26.638Z,70.90
2019-03-17T21:38:56.842Z,71.00
2019-03-17T21:41:27.294Z,71.10
2019-03-17T21:43:59.617Z,71.30
2019-03-17T21:46:28.987Z,71.00
2019-03-17T21:48:58.909Z,70.80
2019-03-17T21:51:29.138Z,70.70
2019-03-17T21:53:59.165Z,70.70
2019-03-17T21:56:29.087Z,70.80
2019-03-17T21:58:59.537Z,70.70
2019-03-17T22:01:29.442Z,71.10
2019-03-17T22:03:59.507Z,70.70
2019-03-17T22:06:29.751Z,70.70
2019-03-17T22:09:00.385Z,70.70
2019-03-17T22:11:30.508Z,70.70
2019-03-17T22:14:11.583Z,70.70
2019-03-17T22:16:31.926Z,70.70
2019-03-17T22:19:02.098Z,70.70
2019-03-17T22:21:33.130Z,70.80
2019-03-17T22:24:03.264Z,70.70
2019-03-17T22:26:33.373Z,70.80
2019-03-17T22:29:03.666Z,70.80
2019-03-17T22:31:33.835Z,71.00
2019-03-17T22:34:04.008Z,71.00
2019-03-17T22:36:34.151Z,71.20
2019-03-17T22:39:04.502Z,71.30
2019-03-17T22:41:34.619Z,71.20
2019-03-17T22:44:04.694Z,71.30
2019-03-17T22:46:34.762Z,71.50
2019-03-17T22:49:04.855Z,71.50
2019-03-17T22:51:34.978Z,71.60
2019-03-17T22:54:05.251Z,71.50
2019-03-17T22:56:35.335Z,71.60
2019-03-17T22:59:05.513Z,71.70
2019-03-17T23:01:35.650Z,71.70
2019-03-17T23:04:05.773Z,71.80
2019-03-17T23:06:35.638Z,71.80
2019-03-17T23:09:07.669Z,72.10
2019-03-17T23:11:37.878Z,72.20
2019-03-17T23:14:08.051Z,72.40
2019-03-17T23:16:38.388Z,72.40
2019-03-17T23:19:08.446Z,72.50
2019-03-17T23:21:38.566Z,72.40
2019-03-17T23:24:08.703Z,72.20
2019-03-17T23:26:38.762Z,72.30
2019-03-17T23:29:08.786Z,72.20
2019-03-17T23:31:38.769Z,72.30
2019-03-17T23:34:08.774Z,72.30
2019-03-17T23:36:39.013Z,72.20
2019-03-17T23:39:09.198Z,72.10
2019-03-17T23:41:39.307Z,71.80
2019-03-17T23:44:09.551Z,71.40
2019-03-17T23:46:39.593Z,71.20
2019-03-17T23:49:09.725Z,71.10
2019-03-17T23:51:39.818Z,70.90
2019-03-17T23:54:09.712Z,70.90
2019-03-17T23:56:39.810Z,70.60
2019-03-17T23:59:09.785Z,70.50
